createdAt,value
2023-12-23T00:01:11.879Z,6.46
2023-12-23T00:03:38.566Z,6.46
2023-12-23T00:06:05.750Z,6.47
2023-12-23T00:08:32.343Z,6.49
2023-12-23T00:10:59.317Z,6.49
2023-12-23T00:13:25.825Z,6.49
2023-12-23T00:15:52.264Z,6.49
2023-12-23T00:18:19.180Z,6.50
2023-12-23T00:20:45.924Z,6.51
2023-12-23T00:23:14.149Z,6.51
2023-12-23T00:25:41.178Z,6.50
2023-12-23T00:28:07.832Z,6.52
2023-12-23T00:30:34.535Z,6.53
2023-12-23T00:33:10.215Z,6.52
2023-12-23T00:35:36.929Z,6.54
2023-12-23T00:38:03.501Z,6.54
2023-12-23T00:40:30.151Z,6.54
2023-12-23T00:42:56.744Z,6.53
2023-12-23T00:45:23.424Z,6.53
2023-12-23T00:47:50.223Z,6.53
2023-12-23T00:50:17.113Z,6.53
2023-12-23T00:52:43.793Z,6.53
2023-12-23T00:55:10.488Z,6.53
2023-12-23T00:57:37.036Z,6.55
2023-12-23T01:00:04.120Z,6.54
2023-12-23T01:02:30.946Z,6.56
2023-12-23T01:04:57.520Z,6.53
2023-12-23T01:07:24.199Z,6.52
2023-12-23T01:09:50.720Z,6.53
2023-12-23T01:12:17.395Z,6.50
2023-12-23T01:14:43.990Z,6.50
2023-12-23T01:19:51.651Z,6.50
2023-12-23T01:22:18.406Z,6.51
2023-12-23T01:24:53.594Z,6.51
2023-12-23T01:27:20.033Z,6.50
2023-12-23T01:29:46.686Z,6.49
2023-12-23T01:32:13.243Z,6.49
2023-12-23T01:34:40.659Z,6.49
2023-12-23T01:39:54.875Z,6.47
2023-12-23T01:42:21.526Z,6.48
2023-12-23T01:44:54.056Z,6.46
2023-12-23T01:47:20.638Z,6.49
2023-12-23T01:49:48.574Z,6.49
2023-12-23T01:52:15.285Z,6.49
2023-12-23T01:54:42.030Z,6.52
2023-12-23T01:57:08.680Z,6.52
2023-12-23T01:59:35.946Z,6.52
2023-12-23T02:02:02.951Z,6.53
2023-12-23T02:04:29.828Z,6.53
2023-12-23T02:06:56.337Z,6.52
2023-12-23T02:09:22.952Z,6.54
2023-12-23T02:12:06.414Z,6.54
2023-12-23T02:14:40.972Z,6.53
2023-12-23T02:17:08.900Z,6.51
2023-12-23T02:19:35.466Z,6.53
2023-12-23T02:22:02.292Z,6.52
2023-12-23T02:24:37.921Z,6.51
2023-12-23T02:27:09.414Z,6.50
2023-12-23T02:29:37.173Z,6.50
2023-12-23T02:32:04.770Z,6.51
2023-12-23T02:34:31.926Z,6.52
2023-12-23T02:37:07.503Z,6.52
2023-12-23T02:39:33.938Z,6.52
2023-12-23T02:42:09.462Z,6.53
2023-12-23T02:44:36.032Z,6.53
2023-12-23T02:47:03.182Z,6.56
2023-12-23T02:49:30.071Z,6.58
2023-12-23T02:51:56.549Z,6.60
2023-12-23T02:54:23.255Z,6.66
2023-12-23T02:56:49.788Z,6.72
2023-12-23T02:59:16.555Z,6.80
2023-12-23T03:01:43.186Z,6.86
2023-12-23T03:04:09.652Z,6.99
2023-12-23T03:06:38.667Z,7.10
2023-12-23T03:09:05.213Z,7.18
2023-12-23T03:11:40.923Z,7.26
2023-12-23T03:14:07.418Z,7.38
2023-12-23T03:16:37.098Z,7.49
2023-12-23T03:19:09.342Z,7.58
2023-12-23T03:21:35.854Z,7.58
2023-12-23T03:24:02.482Z,7.66
2023-12-23T03:26:29.611Z,7.73
2023-12-23T03:28:56.106Z,7.85
2023-12-23T03:31:30.035Z,7.93
2023-12-23T03:33:56.561Z,7.93
2023-12-23T03:36:23.394Z,7.93
2023-12-23T03:38:50.091Z,8.01
2023-12-23T03:41:16.711Z,8.01
2023-12-23T03:43:43.257Z,8.09
2023-12-23T03:46:09.970Z,8.15
2023-12-23T03:48:36.632Z,8.16
2023-12-23T03:51:03.676Z,8.22
2023-12-23T03:53:30.446Z,8.22
2023-12-23T03:55:57.160Z,8.22
2023-12-23T03:58:23.799Z,8.26
2023-12-23T04:00:50.472Z,8.29
2023-12-23T04:03:24.684Z,8.33
2023-12-23T04:05:51.202Z,8.34
2023-12-23T04:08:18.709Z,8.35
2023-12-23T04:10:45.507Z,8.42
2023-12-23T04:13:12.131Z,8.46
2023-12-23T04:15:38.831Z,8.52
2023-12-23T04:18:05.717Z,8.63
2023-12-23T04:20:32.247Z,8.56
2023-12-23T04:22:58.970Z,8.48
2023-12-23T04:25:25.679Z,8.48
2023-12-23T04:27:53.186Z,8.45
2023-12-23T04:30:19.741Z,8.47
2023-12-23T04:32:46.529Z,8.49
2023-12-23T04:35:13.504Z,8.50
2023-12-23T04:37:42.971Z,8.52
2023-12-23T04:40:10.147Z,8.57
2023-12-23T04:42:36.683Z,8.59
2023-12-23T04:45:10.933Z,8.62
2023-12-23T04:47:40.339Z,8.62
2023-12-23T04:50:07.573Z,8.63
2023-12-23T04:52:34.132Z,8.66
2023-12-23T04:55:00.794Z,8.68
2023-12-23T04:57:30.239Z,8.67
2023-12-23T04:59:56.895Z,8.68
2023-12-23T05:02:23.495Z,8.66
2023-12-23T05:04:51.424Z,8.72
2023-12-23T05:07:18.056Z,8.77
2023-12-23T05:09:44.550Z,8.81
2023-12-23T05:12:11.053Z,8.81
2023-12-23T05:14:37.591Z,8.92
2023-12-23T05:17:04.439Z,8.91
2023-12-23T05:19:31.068Z,8.88
2023-12-23T05:21:57.706Z,8.89
2023-12-23T05:24:24.152Z,8.84
2023-12-23T05:26:50.719Z,8.80
2023-12-23T05:29:17.625Z,8.76
2023-12-23T05:31:44.362Z,8.72
2023-12-23T05:34:10.966Z,8.69
2023-12-23T05:36:37.383Z,8.71
2023-12-23T05:39:04.113Z,8.68
2023-12-23T05:41:30.603Z,8.66
2023-12-23T05:43:57.113Z,8.64
2023-12-23T05:46:23.669Z,8.60
2023-12-23T05:48:50.175Z,8.64
2023-12-23T05:51:16.787Z,8.68
2023-12-23T05:53:43.234Z,8.70
2023-12-23T05:56:09.870Z,8.73
2023-12-23T05:58:36.455Z,8.69
2023-12-23T06:01:03.954Z,8.65
2023-12-23T06:03:30.509Z,8.63
2023-12-23T06:05:57.058Z,8.64
2023-12-23T06:08:23.893Z,8.63
2023-12-23T06:10:57.553Z,8.62
2023-12-23T06:13:26.715Z,8.60
2023-12-23T06:15:55.051Z,8.59
2023-12-23T06:18:22.653Z,8.60
2023-12-23T06:20:49.140Z,8.62
2023-12-23T06:23:15.714Z,8.68
2023-12-23T06:25:42.486Z,8.69
2023-12-23T06:28:09.268Z,8.69
2023-12-23T06:30:36.015Z,8.68
2023-12-23T06:33:09.561Z,8.65
2023-12-23T06:35:36.186Z,8.68
2023-12-23T06:38:03.838Z,8.74
2023-12-23T06:40:30.564Z,8.72
2023-12-23T06:42:57.099Z,8.73
2023-12-23T06:45:23.641Z,8.72
2023-12-23T06:47:50.217Z,8.72
2023-12-23T06:50:20.234Z,8.72
2023-12-23T06:52:46.965Z,8.71
2023-12-23T06:55:13.827Z,8.71
2023-12-23T06:57:50.057Z,8.71
2023-12-23T07:00:17.232Z,8.73
2023-12-23T07:02:43.806Z,8.76
2023-12-23T07:05:10.329Z,8.73
2023-12-23T07:07:36.996Z,8.73
2023-12-23T07:10:07.723Z,8.78
2023-12-23T07:12:34.700Z,8.85
2023-12-23T07:15:01.590Z,8.85
2023-12-23T07:17:38.283Z,8.88
2023-12-23T07:20:10.132Z,8.92
2023-12-23T07:22:36.633Z,8.98
2023-12-23T07:25:03.490Z,9.01
2023-12-23T07:27:30.264Z,9.05
2023-12-23T07:29:56.688Z,9.05
2023-12-23T07:32:23.237Z,9.05
2023-12-23T07:34:49.897Z,9.04
2023-12-23T07:37:16.962Z,9.05
2023-12-23T07:39:44.130Z,9.08
2023-12-23T07:42:10.674Z,9.08
2023-12-23T07:44:40.101Z,9.11
2023-12-23T07:47:11.580Z,9.17
2023-12-23T07:49:44.516Z,9.18
2023-12-23T07:52:11.078Z,9.18
2023-12-23T07:54:37.677Z,9.15
2023-12-23T07:57:04.411Z,9.18
2023-12-23T07:59:30.894Z,9.21
2023-12-23T08:01:57.458Z,9.25
2023-12-23T08:04:27.017Z,9.23
2023-12-23T08:06:53.873Z,9.26
2023-12-23T08:09:20.396Z,9.31
2023-12-23T08:11:46.873Z,9.32
2023-12-23T08:14:13.367Z,9.29
2023-12-23T08:16:39.813Z,9.34
2023-12-23T08:21:56.895Z,9.31
2023-12-23T08:24:23.624Z,9.32
2023-12-23T08:26:50.870Z,9.40
2023-12-23T08:29:17.459Z,9.36
2023-12-23T08:31:45.140Z,9.37
2023-12-23T08:34:12.191Z,9.38
2023-12-23T08:36:38.951Z,9.37
2023-12-23T08:39:17.712Z,9.38
2023-12-23T08:41:44.439Z,9.38
2023-12-23T08:47:01.672Z,9.36
2023-12-23T08:49:28.228Z,9.35
2023-12-23T08:51:54.844Z,9.35
2023-12-23T08:54:21.643Z,9.37
2023-12-23T08:56:48.113Z,9.38
2023-12-23T08:59:14.821Z,9.41
2023-12-23T09:01:41.480Z,9.43
2023-12-23T09:04:08.687Z,9.47
2023-12-23T09:06:35.167Z,9.47
2023-12-23T09:09:02.409Z,9.45
2023-12-23T09:11:29.391Z,9.47
2023-12-23T09:14:05.266Z,9.50
2023-12-23T09:16:31.786Z,9.49
2023-12-23T09:18:58.460Z,9.49
2023-12-23T09:21:43.069Z,9.45
2023-12-23T09:24:09.577Z,9.48
2023-12-23T09:26:36.673Z,9.53
2023-12-23T09:29:04.633Z,9.51
2023-12-23T09:31:31.758Z,9.47
2023-12-23T09:33:58.302Z,9.49
2023-12-23T09:36:24.800Z,9.55
2023-12-23T09:38:51.367Z,9.53
2023-12-23T09:41:18.015Z,9.52
2023-12-23T09:43:45.171Z,9.52
2023-12-23T09:46:16.474Z,9.51
2023-12-23T09:48:43.229Z,9.50
2023-12-23T09:51:09.972Z,9.49
2023-12-23T09:53:41.272Z,9.51
2023-12-23T09:56:09.630Z,9.55
2023-12-23T09:58:36.220Z,9.51
2023-12-23T10:01:03.027Z,9.49
2023-12-23T10:03:30.059Z,9.52
2023-12-23T10:06:02.594Z,9.54
2023-12-23T10:08:29.460Z,9.56
2023-12-23T10:10:56.148Z,9.58
2023-12-23T10:13:22.865Z,9.59
2023-12-23T10:15:49.535Z,9.59
2023-12-23T10:18:16.525Z,9.61
2023-12-23T10:20:49.410Z,9.61
2023-12-23T10:23:16.280Z,9.60
2023-12-23T10:25:48.979Z,9.61
2023-12-23T10:28:19.553Z,9.64
2023-12-23T10:30:50.561Z,9.62
2023-12-23T10:33:23.351Z,9.64
2023-12-23T10:35:50.098Z,9.67
2023-12-23T10:38:18.585Z,9.71
2023-12-23T10:40:52.781Z,9.72
2023-12-23T10:43:19.895Z,9.72
2023-12-23T10:45:52.601Z,9.73
2023-12-23T10:48:19.409Z,9.73
2023-12-23T10:50:48.740Z,9.75
2023-12-23T10:53:21.609Z,9.72
2023-12-23T10:55:49.111Z,9.78
2023-12-23T10:58:17.354Z,9.76
2023-12-23T11:00:44.211Z,9.79
2023-12-23T11:03:21.447Z,9.80
2023-12-23T11:05:49.706Z,9.78
2023-12-23T11:11:10.415Z,9.80
2023-12-23T11:13:43.341Z,9.82
2023-12-23T11:16:11.820Z,9.85
2023-12-23T11:18:41.120Z,9.86
2023-12-23T11:21:20.406Z,9.88
2023-12-23T11:23:47.624Z,9.87
2023-12-23T11:26:42.887Z,9.90
2023-12-23T11:29:19.951Z,9.93
2023-12-23T11:31:46.576Z,9.93
2023-12-23T11:34:18.019Z,9.94
2023-12-23T11:36:45.492Z,9.93
2023-12-23T11:39:13.437Z,9.94
2023-12-23T11:41:42.684Z,9.96
2023-12-23T11:44:11.315Z,9.94
2023-12-23T11:46:40.793Z,9.98
2023-12-23T11:49:10.232Z,10.02
2023-12-23T11:51:39.142Z,10.04
2023-12-23T11:54:06.158Z,10.04
2023-12-23T11:56:42.090Z,10.09
2023-12-23T11:59:17.516Z,10.08
2023-12-23T12:01:44.158Z,10.08
2023-12-23T12:04:10.769Z,10.10
2023-12-23T12:06:37.609Z,10.13
2023-12-23T12:09:07.615Z,10.17
2023-12-23T12:11:34.904Z,10.16
2023-12-23T12:14:01.663Z,10.16
2023-12-23T12:16:28.388Z,10.16
2023-12-23T12:18:55.095Z,10.16
2023-12-23T12:21:22.058Z,10.15
2023-12-23T12:23:48.598Z,10.17
2023-12-23T12:26:15.254Z,10.18
2023-12-23T12:28:43.617Z,10.17
2023-12-23T12:31:14.048Z,10.20
2023-12-23T12:33:42.629Z,10.20
2023-12-23T12:36:13.250Z,10.20
2023-12-23T12:38:39.928Z,10.22
2023-12-23T12:41:07.543Z,10.20
2023-12-23T12:43:35.718Z,10.18
2023-12-23T12:46:02.314Z,10.15
2023-12-23T12:48:28.860Z,10.17
2023-12-23T12:50:56.448Z,10.11
2023-12-23T12:53:23.418Z,10.09
2023-12-23T12:55:50.044Z,10.06
2023-12-23T12:58:17.585Z,10.06
2023-12-23T13:00:44.119Z,10.02
2023-12-23T13:03:17.088Z,10.01
2023-12-23T13:05:44.825Z,10.01
2023-12-23T13:08:11.435Z,10.00
2023-12-23T13:10:38.222Z,10.01
2023-12-23T13:13:05.089Z,10.06
2023-12-23T13:15:32.271Z,10.07
2023-12-23T13:17:59.472Z,10.04
2023-12-23T13:20:26.166Z,10.02
2023-12-23T13:22:53.091Z,10.02
2023-12-23T13:25:19.957Z,10.04
2023-12-23T13:27:46.445Z,10.04
2023-12-23T13:30:13.307Z,10.04
2023-12-23T13:32:39.889Z,10.04
2023-12-23T13:35:06.876Z,10.09
2023-12-23T13:37:33.513Z,10.06
2023-12-23T13:40:00.784Z,10.05
2023-12-23T13:42:27.315Z,10.04
2023-12-23T13:44:54.230Z,10.05
2023-12-23T13:47:20.820Z,10.03
2023-12-23T13:49:47.581Z,10.03
2023-12-23T13:52:16.288Z,10.04
2023-12-23T13:54:56.240Z,10.04
2023-12-23T13:57:22.779Z,10.06
2023-12-23T13:59:52.130Z,10.02
2023-12-23T14:02:18.789Z,10.00
2023-12-23T14:04:47.411Z,10.00
2023-12-23T14:07:13.952Z,9.99
2023-12-23T14:09:40.707Z,9.99
2023-12-23T14:12:07.974Z,9.99
2023-12-23T14:17:15.061Z,9.99
2023-12-23T14:22:27.985Z,9.96
2023-12-23T14:24:56.117Z,9.95
2023-12-23T14:27:26.979Z,9.94
2023-12-23T14:29:53.893Z,9.93
2023-12-23T14:32:20.395Z,9.91
2023-12-23T14:34:46.922Z,9.91
2023-12-23T14:37:13.760Z,9.91
2023-12-23T14:39:41.005Z,9.87
2023-12-23T14:42:07.761Z,9.86
2023-12-23T14:44:34.367Z,9.89
2023-12-23T14:47:01.090Z,9.87
2023-12-23T14:49:27.710Z,9.86
2023-12-23T14:51:54.342Z,9.85
2023-12-23T14:54:21.160Z,9.84
2023-12-23T14:56:47.622Z,9.84
2023-12-23T14:59:14.193Z,9.83
2023-12-23T15:01:40.709Z,9.82
2023-12-23T15:04:07.349Z,9.81
2023-12-23T15:06:33.788Z,9.83
2023-12-23T15:09:00.404Z,9.81
2023-12-23T15:11:27.234Z,9.81
2023-12-23T15:13:54.065Z,9.80
2023-12-23T15:16:21.554Z,9.79
2023-12-23T15:18:48.300Z,9.80
2023-12-23T15:21:14.793Z,9.76
2023-12-23T15:23:41.688Z,9.77
2023-12-23T15:26:08.740Z,9.76
2023-12-23T15:28:37.052Z,9.79
2023-12-23T15:31:14.361Z,9.81
2023-12-23T15:33:48.385Z,9.81
2023-12-23T15:36:34.212Z,9.83
2023-12-23T15:39:05.667Z,9.85
2023-12-23T15:44:27.034Z,9.86
2023-12-23T15:44:53.846Z,9.84
2023-12-23T15:50:17.747Z,9.86
2023-12-23T15:50:41.642Z,9.88
2023-12-23T15:53:08.443Z,9.88
2023-12-23T15:55:45.629Z,9.91
2023-12-23T15:58:14.735Z,9.91
2023-12-23T16:01:04.054Z,9.89
2023-12-23T16:06:14.098Z,9.88
2023-12-23T16:06:28.604Z,9.85
2023-12-23T16:09:08.265Z,9.84
2023-12-23T16:12:08.440Z,9.82
2023-12-23T16:14:56.109Z,9.83
2023-12-23T16:17:52.828Z,9.83
2023-12-23T16:20:30.778Z,9.81
2023-12-23T16:23:09.172Z,9.79
2023-12-23T16:26:04.260Z,9.78
2023-12-23T16:31:18.741Z,9.79
2023-12-23T16:34:08.304Z,9.77
2023-12-23T16:40:11.724Z,9.76
2023-12-23T16:42:50.549Z,9.76
2023-12-23T16:45:26.971Z,9.75
2023-12-23T16:48:01.127Z,9.75
2023-12-23T16:50:33.927Z,9.77
2023-12-23T16:53:36.665Z,9.76
2023-12-23T16:56:03.309Z,9.76
2023-12-23T16:58:46.632Z,9.78
2023-12-23T17:01:20.691Z,9.76
2023-12-23T17:04:06.414Z,9.74
2023-12-23T17:07:22.285Z,9.78
2023-12-23T17:09:41.491Z,9.76
2023-12-23T17:15:01.202Z,9.77
2023-12-23T17:15:30.026Z,9.80
2023-12-23T17:18:15.569Z,9.78
2023-12-23T17:21:53.604Z,9.77
2023-12-23T17:24:40.821Z,9.78
2023-12-23T17:27:49.202Z,9.79
2023-12-23T17:30:47.803Z,9.77
2023-12-23T17:33:33.232Z,9.78
2023-12-23T17:35:32.321Z,9.78
2023-12-23T17:38:00.584Z,9.80
2023-12-23T17:40:27.422Z,9.80
2023-12-23T17:42:54.184Z,9.77
2023-12-23T17:45:20.792Z,9.79
2023-12-23T17:47:49.993Z,9.85
2023-12-23T17:50:18.837Z,9.84
2023-12-23T17:52:45.476Z,9.82
2023-12-23T17:55:12.096Z,9.83
2023-12-23T17:57:38.830Z,9.85
2023-12-23T18:00:05.970Z,9.86
2023-12-23T18:02:33.115Z,9.86
2023-12-23T18:04:59.732Z,9.88
2023-12-23T18:07:26.461Z,9.88
2023-12-23T18:09:52.996Z,9.91
2023-12-23T18:12:19.632Z,9.92
2023-12-23T18:14:46.303Z,9.91
2023-12-23T18:17:12.813Z,9.92
2023-12-23T18:19:39.443Z,9.91
2023-12-23T18:22:06.168Z,9.90
2023-12-23T18:24:32.891Z,9.87
2023-12-23T18:27:00.350Z,9.88
2023-12-23T18:29:27.142Z,9.89
2023-12-23T18:32:02.818Z,9.89
2023-12-23T18:34:29.536Z,9.91
2023-12-23T18:36:56.101Z,9.90
2023-12-23T18:39:25.057Z,9.88
2023-12-23T18:41:51.628Z,9.91
2023-12-23T18:44:18.456Z,9.85
2023-12-23T18:46:45.026Z,9.83
2023-12-23T18:49:11.822Z,9.83
2023-12-23T18:51:38.537Z,9.81
2023-12-23T18:54:05.076Z,9.80
2023-12-23T18:56:31.653Z,9.76
2023-12-23T18:58:58.759Z,9.70
2023-12-23T19:01:25.365Z,9.68
2023-12-23T19:03:53.715Z,9.64
2023-12-23T19:06:20.153Z,9.63
2023-12-23T19:08:52.381Z,9.62
2023-12-23T19:11:22.290Z,9.60
2023-12-23T19:13:50.362Z,9.65
2023-12-23T19:16:17.111Z,9.76
2023-12-23T19:18:43.923Z,9.80
2023-12-23T19:21:10.455Z,9.87
2023-12-23T19:23:38.546Z,9.89
2023-12-23T19:26:05.239Z,9.89
2023-12-23T19:28:43.522Z,9.88
2023-12-23T19:31:15.794Z,9.89
2023-12-23T19:33:51.569Z,9.91
2023-12-23T19:36:58.517Z,9.91
2023-12-23T19:39:25.037Z,9.92
2023-12-23T19:41:51.615Z,9.96
2023-12-23T19:44:23.087Z,9.96
2023-12-23T19:46:55.754Z,10.00
2023-12-23T19:49:22.490Z,9.96
2023-12-23T19:51:53.277Z,9.95
2023-12-23T19:54:20.079Z,9.95
2023-12-23T19:56:46.952Z,9.98
2023-12-23T19:59:13.647Z,9.94
2023-12-23T20:01:40.562Z,9.92
2023-12-23T20:04:07.122Z,9.93
2023-12-23T20:06:45.242Z,9.90
2023-12-23T20:09:13.075Z,9.88
2023-12-23T20:11:42.736Z,9.88
2023-12-23T20:14:19.027Z,9.89
2023-12-23T20:16:49.015Z,9.85
2023-12-23T20:19:17.861Z,9.84
2023-12-23T20:21:56.461Z,9.80
2023-12-23T20:24:23.406Z,9.82
2023-12-23T20:26:53.174Z,9.83
2023-12-23T20:29:36.688Z,9.79
2023-12-23T20:32:04.596Z,9.77
2023-12-23T20:34:31.355Z,9.73
2023-12-23T20:37:10.929Z,9.72
2023-12-23T20:40:07.689Z,9.73
2023-12-23T20:42:41.405Z,9.71
2023-12-23T20:45:10.562Z,9.74
2023-12-23T20:47:37.275Z,9.80
2023-12-23T20:50:15.762Z,9.78
2023-12-23T20:52:43.996Z,9.78
2023-12-23T20:55:13.440Z,9.77
2023-12-23T20:57:39.949Z,9.77
2023-12-23T21:00:21.098Z,9.78
2023-12-23T21:02:47.926Z,9.80
2023-12-23T21:05:14.671Z,9.80
2023-12-23T21:07:42.644Z,9.77
2023-12-23T21:10:18.399Z,9.77
2023-12-23T21:12:48.246Z,9.76
2023-12-23T21:15:33.301Z,9.71
2023-12-23T21:18:12.428Z,9.69
2023-12-23T21:20:39.461Z,9.71
2023-12-23T21:23:15.106Z,9.66
2023-12-23T21:25:41.617Z,9.66
2023-12-23T21:28:08.376Z,9.62
2023-12-23T21:30:34.886Z,9.60
2023-12-23T21:33:01.718Z,9.60
2023-12-23T21:35:28.378Z,9.58
2023-12-23T21:37:55.097Z,9.54
2023-12-23T21:40:21.582Z,9.51
2023-12-23T21:42:48.134Z,9.51
2023-12-23T21:45:15.016Z,9.48
2023-12-23T21:47:48.153Z,9.52
2023-12-23T21:50:15.741Z,9.48
2023-12-23T21:52:46.018Z,9.49
2023-12-23T21:55:12.611Z,9.47
2023-12-23T21:57:39.152Z,9.52
2023-12-23T22:00:06.888Z,9.51
2023-12-23T22:02:45.776Z,9.49
2023-12-23T22:05:12.382Z,9.47
2023-12-23T22:07:39.196Z,9.46
2023-12-23T22:10:06.404Z,9.47
2023-12-23T22:12:32.846Z,9.43
2023-12-23T22:14:59.467Z,9.37
2023-12-23T22:17:25.974Z,9.34
2023-12-23T22:19:53.187Z,9.35
2023-12-23T22:22:20.014Z,9.32
2023-12-23T22:24:46.542Z,9.31
2023-12-23T22:27:13.138Z,9.28
2023-12-23T22:29:40.636Z,9.28
2023-12-23T22:32:07.357Z,9.25
2023-12-23T22:34:34.000Z,9.24
2023-12-23T22:37:00.609Z,9.23
2023-12-23T22:39:27.368Z,9.27
2023-12-23T22:41:55.571Z,9.30
2023-12-23T22:44:24.598Z,9.32
2023-12-23T22:46:51.263Z,9.30
2023-12-23T22:49:18.409Z,9.32
2023-12-23T22:51:45.241Z,9.33
2023-12-23T22:54:11.852Z,9.35
2023-12-23T22:56:40.120Z,9.35
2023-12-23T22:59:17.493Z,9.34
2023-12-23T23:01:44.174Z,9.36
2023-12-23T23:04:12.150Z,9.36
2023-12-23T23:06:38.639Z,9.39
2023-12-23T23:09:13.842Z,9.41
2023-12-23T23:11:40.359Z,9.41
2023-12-23T23:14:06.895Z,9.41
2023-12-23T23:16:33.460Z,9.46
2023-12-23T23:19:05.927Z,9.45
2023-12-23T23:21:32.947Z,9.47
2023-12-23T23:23:59.425Z,9.44
2023-12-23T23:26:26.029Z,9.46
2023-12-23T23:28:52.885Z,9.45
2023-12-23T23:31:20.908Z,9.46
2023-12-23T23:33:47.726Z,9.48
2023-12-23T23:36:16.852Z,9.50
2023-12-23T23:38:43.675Z,9.51
2023-12-23T23:41:11.461Z,9.51
2023-12-23T23:43:38.421Z,9.51
2023-12-23T23:46:07.825Z,9.54
2023-12-23T23:48:34.349Z,9.57
2023-12-23T23:51:00.830Z,9.56
2023-12-23T23:53:27.505Z,9.57
2023-12-23T23:55:54.133Z,9.55
2023-12-23T23:58:20.618Z,9.59
